createdAt,value
2022-08-17T00:00:04.516Z,65.10
2022-08-17T00:03:15.540Z,65.20
2022-08-17T00:05:52.618Z,65.10
2022-08-17T00:08:46.230Z,65.20
2022-08-17T00:11:17.478Z,65.10
2022-08-17T00:13:48.796Z,65.20
2022-08-17T00:16:23.081Z,65.20
2022-08-17T00:19:13.631Z,65.10
2022-08-17T00:22:29.778Z,65.10
2022-08-17T00:24:32.889Z,65.10
2022-08-17T00:27:00.452Z,65.10
2022-08-17T00:29:27.929Z,65.20
2022-08-17T00:31:55.344Z,65.20
2022-08-17T00:34:22.776Z,65.10
2022-08-17T00:36:50.237Z,65.30
2022-08-17T00:39:17.744Z,65.10
2022-08-17T00:41:45.200Z,65.10
2022-08-17T00:44:12.757Z,65.20
2022-08-17T00:46:42.726Z,65.10
2022-08-17T00:49:12.552Z,65.10
2022-08-17T00:51:45.814Z,65.20
2022-08-17T00:54:24.144Z,65.20
2022-08-17T00:56:56.911Z,65.20
2022-08-17T00:59:31.019Z,65.20
2022-08-17T01:01:59.513Z,65.20
2022-08-17T01:04:29.403Z,65.20
2022-08-17T01:06:58.728Z,65.20
2022-08-17T01:09:26.291Z,65.20
2022-08-17T01:11:54.060Z,65.20
2022-08-17T01:14:26.068Z,65.20
2022-08-17T01:16:55.984Z,65.20
2022-08-17T01:19:42.999Z,65.20
2022-08-17T01:22:14.565Z,65.10
2022-08-17T01:24:46.043Z,65.10
2022-08-17T01:27:16.490Z,65.20
2022-08-17T01:29:50.338Z,65.20
2022-08-17T01:32:19.077Z,65.20
2022-08-17T01:34:50.460Z,65.20
2022-08-17T01:37:20.217Z,65.20
2022-08-17T01:39:57.717Z,65.20
2022-08-17T01:42:25.288Z,65.20
2022-08-17T01:44:57.200Z,65.20
2022-08-17T01:47:24.711Z,65.20
2022-08-17T01:49:52.364Z,65.10
2022-08-17T01:52:22.146Z,65.10
2022-08-17T01:54:50.501Z,65.10
2022-08-17T01:57:18.236Z,65.10
2022-08-17T01:59:45.799Z,65.10
2022-08-17T02:02:30.538Z,65.10
2022-08-17T02:04:59.474Z,65.10
2022-08-17T02:07:27.229Z,65.20
2022-08-17T02:09:55.068Z,65.10
2022-08-17T02:12:39.249Z,65.20
2022-08-17T02:15:12.579Z,65.10
2022-08-17T02:17:41.003Z,65.10
2022-08-17T02:20:10.848Z,65.20
2022-08-17T02:22:40.714Z,65.10
2022-08-17T02:25:10.074Z,65.10
2022-08-17T02:27:38.894Z,65.10
2022-08-17T02:30:59.759Z,65.70
2022-08-17T02:32:58.741Z,65.10
2022-08-17T02:35:31.790Z,65.10
2022-08-17T02:37:59.359Z,65.10
2022-08-17T02:40:36.264Z,65.10
2022-08-17T02:43:05.374Z,65.10
2022-08-17T02:45:32.849Z,65.10
2022-08-17T02:48:00.337Z,65.10
2022-08-17T02:50:27.816Z,65.10
2022-08-17T02:53:02.492Z,65.10
2022-08-17T02:55:37.045Z,65.10
2022-08-17T02:58:05.230Z,65.10
2022-08-17T03:00:35.667Z,65.10
2022-08-17T03:03:05.711Z,65.10
2022-08-17T03:05:36.552Z,65.10
2022-08-17T03:08:04.789Z,65.10
2022-08-17T03:10:33.067Z,65.10
2022-08-17T03:13:00.763Z,65.20
2022-08-17T03:15:31.637Z,65.10
2022-08-17T03:17:59.462Z,65.10
2022-08-17T03:20:29.004Z,65.10
2022-08-17T03:22:58.560Z,65.20
2022-08-17T03:25:37.822Z,65.20
2022-08-17T03:28:07.093Z,65.10
2022-08-17T03:30:35.670Z,65.00
2022-08-17T03:33:05.625Z,65.10
2022-08-17T03:35:36.627Z,65.10
2022-08-17T03:38:04.923Z,65.10
2022-08-17T03:40:57.891Z,65.10
2022-08-17T03:43:22.995Z,65.10
2022-08-17T03:46:10.075Z,65.10
2022-08-17T03:49:13.535Z,65.70
2022-08-17T03:51:59.663Z,65.20
2022-08-17T03:54:45.408Z,65.10
2022-08-17T03:57:13.085Z,65.20
2022-08-17T03:59:41.044Z,65.10
2022-08-17T04:02:15.993Z,65.20
2022-08-17T04:04:43.599Z,65.20
2022-08-17T04:07:11.240Z,65.20
2022-08-17T04:09:38.939Z,65.20
2022-08-17T04:12:06.585Z,65.10
2022-08-17T04:14:51.763Z,65.20
2022-08-17T04:17:27.145Z,65.10
2022-08-17T04:19:56.025Z,65.10
2022-08-17T04:22:32.048Z,65.10
2022-08-17T04:25:15.904Z,65.10
2022-08-17T04:27:43.462Z,65.10
2022-08-17T04:30:11.637Z,65.20
2022-08-17T04:32:59.432Z,65.20
2022-08-17T04:35:48.207Z,65.10
2022-08-17T04:38:18.914Z,65.80
2022-08-17T04:41:05.044Z,65.10
2022-08-17T04:43:33.983Z,65.10
2022-08-17T04:46:04.881Z,65.10
2022-08-17T04:48:36.010Z,65.10
2022-08-17T04:51:08.400Z,65.10
2022-08-17T04:53:36.472Z,65.10
2022-08-17T04:56:04.625Z,65.20
2022-08-17T04:58:32.374Z,65.10
2022-08-17T05:01:01.426Z,65.10
2022-08-17T05:03:29.194Z,65.10
2022-08-17T05:05:56.656Z,65.00
2022-08-17T05:08:24.393Z,65.00
2022-08-17T05:10:52.278Z,65.10
2022-08-17T05:13:26.233Z,65.00
2022-08-17T05:15:56.990Z,65.10
2022-08-17T05:18:24.848Z,65.10
2022-08-17T05:20:54.134Z,65.10
2022-08-17T05:23:24.059Z,65.10
2022-08-17T05:25:57.512Z,65.00
2022-08-17T05:28:27.957Z,65.00
2022-08-17T05:31:01.493Z,65.00
2022-08-17T05:33:34.935Z,65.00
2022-08-17T05:36:08.299Z,65.10
2022-08-17T05:38:36.254Z,65.10
2022-08-17T05:41:07.135Z,65.10
2022-08-17T05:43:36.375Z,65.10
2022-08-17T05:46:06.962Z,65.20
2022-08-17T05:48:40.395Z,65.30
2022-08-17T05:51:52.242Z,65.30
2022-08-17T05:54:36.221Z,65.20
2022-08-17T05:57:39.931Z,65.20
2022-08-17T06:00:43.090Z,65.20
2022-08-17T06:03:17.674Z,65.20
2022-08-17T06:06:25.239Z,65.20
2022-08-17T06:09:28.862Z,65.20
2022-08-17T06:12:19.928Z,65.20
2022-08-17T06:15:19.582Z,65.20
2022-08-17T06:17:47.346Z,65.20
2022-08-17T06:20:16.348Z,65.30
2022-08-17T06:22:54.489Z,65.20
2022-08-17T06:25:40.833Z,65.20
2022-08-17T06:28:14.886Z,65.20
2022-08-17T06:31:00.730Z,65.30
2022-08-17T06:33:35.470Z,65.30
2022-08-17T06:36:35.679Z,65.30
2022-08-17T06:39:28.043Z,65.30
2022-08-17T06:42:09.728Z,65.30
2022-08-17T06:45:07.304Z,65.30
2022-08-17T06:47:42.519Z,65.30
2022-08-17T06:50:18.893Z,65.40
2022-08-17T06:53:12.418Z,65.40
2022-08-17T06:55:49.550Z,65.50
2022-08-17T06:58:22.454Z,65.40
2022-08-17T07:00:56.641Z,65.40
2022-08-17T07:03:32.648Z,65.40
2022-08-17T07:06:07.136Z,65.50
2022-08-17T07:08:38.301Z,65.50
2022-08-17T07:11:17.024Z,65.50
2022-08-17T07:14:17.326Z,65.50
2022-08-17T07:16:50.576Z,65.50
2022-08-17T07:19:25.525Z,65.50
2022-08-17T07:22:10.866Z,65.60
2022-08-17T07:24:43.490Z,65.50
2022-08-17T07:27:12.934Z,65.50
2022-08-17T07:30:16.618Z,65.50
2022-08-17T07:32:57.923Z,65.40
2022-08-17T07:35:40.752Z,65.50
2022-08-17T07:38:24.660Z,65.40
2022-08-17T07:41:03.786Z,65.50
2022-08-17T07:43:40.076Z,65.50
2022-08-17T07:46:34.705Z,65.40
2022-08-17T07:49:07.653Z,65.40
2022-08-17T07:51:58.099Z,65.40
2022-08-17T07:54:45.596Z,65.40
2022-08-17T07:57:13.006Z,65.40
2022-08-17T07:59:43.497Z,65.40
2022-08-17T08:02:33.674Z,65.30
2022-08-17T08:05:30.696Z,65.30
2022-08-17T08:08:42.484Z,65.30
2022-08-17T08:11:15.526Z,65.30
2022-08-17T08:13:45.875Z,65.30
2022-08-17T08:16:20.104Z,65.30
2022-08-17T08:18:56.807Z,65.20
2022-08-17T08:21:37.062Z,65.20
2022-08-17T08:24:24.373Z,65.20
2022-08-17T08:27:08.597Z,65.20
2022-08-17T08:29:56.868Z,65.30
2022-08-17T08:32:39.700Z,65.30
2022-08-17T08:35:26.962Z,65.20
2022-08-17T08:38:06.148Z,65.20
2022-08-17T08:40:51.684Z,65.30
2022-08-17T08:43:50.786Z,65.40
2022-08-17T08:46:27.905Z,65.40
2022-08-17T08:49:18.654Z,65.50
2022-08-17T08:51:56.142Z,65.60
2022-08-17T08:54:48.570Z,65.50
2022-08-17T08:57:33.437Z,65.40
2022-08-17T09:00:13.254Z,65.50
2022-08-17T09:03:07.469Z,65.50
2022-08-17T09:05:58.793Z,65.40
2022-08-17T09:08:26.281Z,65.70
2022-08-17T09:11:06.209Z,65.70
2022-08-17T09:13:54.306Z,65.70
2022-08-17T09:16:30.921Z,65.70
2022-08-17T09:19:05.514Z,66.10
2022-08-17T09:21:41.470Z,66.10
2022-08-17T09:24:49.396Z,65.90
2022-08-17T09:27:23.939Z,65.90
2022-08-17T09:30:08.037Z,65.90
2022-08-17T09:32:41.606Z,65.80
2022-08-17T09:35:23.973Z,65.80
2022-08-17T09:38:13.519Z,65.80
2022-08-17T09:40:48.841Z,65.80
2022-08-17T09:43:32.864Z,65.90
2022-08-17T09:46:26.013Z,65.70
2022-08-17T09:49:10.287Z,65.80
2022-08-17T09:52:02.830Z,65.80
2022-08-17T09:54:39.152Z,66.00
2022-08-17T09:57:32.593Z,65.90
2022-08-17T10:00:16.086Z,65.90
2022-08-17T10:03:12.279Z,65.70
2022-08-17T10:05:46.705Z,65.80
2022-08-17T10:08:29.116Z,66.10
2022-08-17T10:11:15.587Z,65.90
2022-08-17T10:13:53.246Z,66.10
2022-08-17T10:16:27.424Z,66.30
2022-08-17T10:19:05.691Z,66.10
2022-08-17T10:22:00.899Z,66.30
2022-08-17T10:25:22.654Z,66.10
2022-08-17T10:27:57.893Z,66.30
2022-08-17T10:30:28.969Z,66.30
2022-08-17T10:33:04.982Z,66.50
2022-08-17T10:35:37.851Z,66.50
2022-08-17T10:38:29.424Z,66.40
2022-08-17T10:41:19.686Z,66.30
2022-08-17T10:44:38.182Z,66.20
2022-08-17T10:47:12.867Z,66.20
2022-08-17T10:49:56.149Z,66.40
2022-08-17T10:52:24.886Z,66.40
2022-08-17T10:54:58.171Z,66.20
2022-08-17T10:57:37.153Z,66.40
2022-08-17T11:00:15.562Z,66.30
2022-08-17T11:02:54.794Z,66.40
2022-08-17T11:05:43.711Z,66.10
2022-08-17T11:08:36.418Z,66.00
2022-08-17T11:11:36.041Z,66.00
2022-08-17T11:14:26.560Z,66.10
2022-08-17T11:17:07.755Z,66.20
2022-08-17T11:19:47.336Z,66.20
2022-08-17T11:22:33.399Z,66.20
2022-08-17T11:25:31.861Z,66.20
2022-08-17T11:28:17.445Z,66.30
2022-08-17T11:31:01.865Z,66.30
2022-08-17T11:33:29.477Z,66.30
2022-08-17T11:36:22.559Z,66.20
2022-08-17T11:39:22.610Z,66.20
2022-08-17T11:42:16.850Z,66.20
2022-08-17T11:44:58.415Z,66.20
2022-08-17T11:48:26.413Z,66.30
2022-08-17T11:51:34.286Z,66.20
2022-08-17T11:56:59.512Z,66.10
2022-08-17T11:59:33.579Z,66.10
2022-08-17T12:02:32.611Z,66.10
2022-08-17T12:05:12.558Z,66.10
2022-08-17T12:08:05.685Z,66.10
2022-08-17T12:10:40.423Z,66.10
2022-08-17T12:13:15.862Z,66.10
2022-08-17T12:15:49.826Z,66.10
2022-08-17T12:18:28.263Z,66.10
2022-08-17T12:21:26.634Z,66.10
2022-08-17T12:24:01.140Z,66.00
2022-08-17T12:26:34.438Z,66.00
2022-08-17T12:29:18.448Z,65.90
2022-08-17T12:32:02.365Z,66.00
2022-08-17T12:34:42.836Z,66.10
2022-08-17T12:37:27.646Z,65.90
2022-08-17T12:40:02.637Z,65.90
2022-08-17T12:42:37.652Z,65.90
2022-08-17T12:45:07.716Z,65.90
2022-08-17T12:47:38.761Z,65.90
2022-08-17T12:50:29.473Z,66.60
2022-08-17T12:53:01.938Z,66.00
2022-08-17T12:55:37.303Z,66.10
2022-08-17T12:58:08.915Z,66.00
2022-08-17T13:00:48.980Z,66.00
2022-08-17T13:03:19.399Z,66.00
2022-08-17T13:05:52.827Z,66.00
2022-08-17T13:08:30.201Z,66.00
2022-08-17T13:11:19.780Z,65.90
2022-08-17T13:13:56.199Z,65.90
2022-08-17T13:16:30.537Z,66.00
2022-08-17T13:19:29.731Z,65.90
2022-08-17T13:22:12.189Z,66.00
2022-08-17T13:24:54.460Z,66.00
2022-08-17T13:27:25.237Z,66.00
2022-08-17T13:30:00.391Z,66.00
2022-08-17T13:32:31.169Z,66.00
2022-08-17T13:35:14.846Z,66.00
2022-08-17T13:38:08.379Z,66.70
2022-08-17T13:40:45.601Z,66.10
2022-08-17T13:43:33.013Z,66.10
2022-08-17T13:46:12.991Z,66.10
2022-08-17T13:48:40.766Z,66.40
2022-08-17T13:51:15.583Z,66.20
2022-08-17T13:53:43.026Z,66.10
2022-08-17T13:56:40.911Z,65.90
2022-08-17T13:59:54.395Z,66.00
2022-08-17T14:02:26.004Z,65.90
2022-08-17T14:04:57.038Z,65.90
2022-08-17T14:07:34.057Z,65.90
2022-08-17T14:10:16.298Z,65.90
2022-08-17T14:12:45.428Z,65.90
2022-08-17T14:15:16.479Z,65.90
2022-08-17T14:17:44.258Z,65.90
2022-08-17T14:20:13.054Z,65.80
2022-08-17T14:22:45.257Z,65.80
2022-08-17T14:25:15.947Z,65.90
2022-08-17T14:27:53.375Z,65.90
2022-08-17T14:30:25.915Z,65.90
2022-08-17T14:32:58.291Z,65.90
2022-08-17T14:35:28.071Z,66.00
2022-08-17T14:37:56.445Z,66.10
2022-08-17T14:40:25.864Z,66.50
2022-08-17T14:42:55.330Z,66.50
2022-08-17T14:45:29.850Z,65.90
2022-08-17T14:48:04.258Z,65.80
2022-08-17T14:50:36.111Z,65.90
2022-08-17T14:53:05.902Z,65.90
2022-08-17T14:55:34.740Z,65.80
2022-08-17T14:58:04.124Z,65.80
2022-08-17T15:00:32.236Z,65.70
2022-08-17T15:03:01.296Z,65.70
2022-08-17T15:05:33.802Z,65.70
2022-08-17T15:08:02.874Z,65.70
2022-08-17T15:10:30.999Z,65.70
2022-08-17T15:12:59.107Z,65.80
2022-08-17T15:15:26.755Z,65.70
2022-08-17T15:17:54.521Z,65.80
2022-08-17T15:20:28.222Z,65.80
2022-08-17T15:22:57.646Z,65.70
2022-08-17T15:25:27.856Z,65.70
2022-08-17T15:27:58.591Z,65.70
2022-08-17T15:30:27.738Z,65.70
2022-08-17T15:32:56.776Z,65.80
2022-08-17T15:35:28.758Z,65.80
2022-08-17T15:38:04.533Z,65.80
2022-08-17T15:40:42.591Z,65.80
2022-08-17T15:43:14.657Z,65.80
2022-08-17T15:45:42.677Z,65.80
2022-08-17T15:48:10.634Z,65.80
2022-08-17T15:50:38.237Z,65.80
2022-08-17T15:53:05.727Z,65.80
2022-08-17T15:55:34.592Z,65.70
2022-08-17T15:58:02.549Z,65.80
2022-08-17T16:00:30.599Z,65.70
2022-08-17T16:03:45.550Z,65.70
2022-08-17T16:05:50.551Z,65.80
2022-08-17T16:08:21.331Z,65.80
2022-08-17T16:10:50.563Z,66.10
2022-08-17T16:13:19.632Z,66.00
2022-08-17T16:15:56.219Z,65.90
2022-08-17T16:18:31.514Z,65.80
2022-08-17T16:21:26.028Z,65.70
2022-08-17T16:23:57.797Z,65.70
2022-08-17T16:26:26.447Z,65.60
2022-08-17T16:28:54.430Z,65.60
2022-08-17T16:31:22.024Z,65.60
2022-08-17T16:34:15.817Z,65.60
2022-08-17T16:36:39.047Z,65.70
2022-08-17T16:39:07.730Z,65.80
2022-08-17T16:41:45.280Z,65.90
2022-08-17T16:44:18.838Z,65.80
2022-08-17T16:46:47.740Z,65.90
2022-08-17T16:49:32.436Z,65.80
2022-08-17T16:52:15.621Z,65.80
2022-08-17T16:55:02.507Z,65.80
2022-08-17T16:57:30.436Z,65.80
2022-08-17T16:59:58.988Z,65.80
2022-08-17T17:02:32.671Z,65.80
2022-08-17T17:05:00.220Z,65.80
2022-08-17T17:07:46.321Z,65.80
2022-08-17T17:10:20.113Z,65.80
2022-08-17T17:13:02.939Z,66.40
2022-08-17T17:15:45.533Z,65.80
2022-08-17T17:18:15.993Z,65.90
2022-08-17T17:20:50.196Z,66.00
2022-08-17T17:23:29.438Z,66.10
2022-08-17T17:26:06.538Z,66.10
2022-08-17T17:29:03.750Z,65.90
2022-08-17T17:31:46.307Z,65.90
2022-08-17T17:34:16.724Z,66.00
2022-08-17T17:36:51.647Z,66.00
2022-08-17T17:39:43.905Z,66.00
2022-08-17T17:42:16.669Z,65.90
2022-08-17T17:44:54.429Z,65.80
2022-08-17T17:47:22.482Z,65.70
2022-08-17T17:49:50.145Z,65.70
2022-08-17T17:52:32.985Z,65.60
2022-08-17T17:55:31.629Z,65.70
2022-08-17T17:58:32.568Z,65.70
2022-08-17T18:01:13.755Z,65.70
2022-08-17T18:03:59.746Z,65.70
2022-08-17T18:06:40.385Z,65.90
2022-08-17T18:09:33.895Z,65.90
2022-08-17T18:12:09.104Z,65.90
2022-08-17T18:15:07.837Z,66.00
2022-08-17T18:17:36.497Z,65.90
2022-08-17T18:20:07.669Z,65.90
2022-08-17T18:22:35.662Z,65.90
2022-08-17T18:26:02.512Z,65.80
2022-08-17T18:28:35.706Z,65.80
2022-08-17T18:31:20.854Z,65.90
2022-08-17T18:33:52.564Z,65.90
2022-08-17T18:36:32.269Z,66.00
2022-08-17T18:39:26.759Z,66.00
2022-08-17T18:41:57.635Z,66.10
2022-08-17T18:44:29.082Z,66.10
2022-08-17T18:47:13.802Z,65.90
2022-08-17T18:49:44.448Z,65.90
2022-08-17T18:52:21.513Z,65.80
2022-08-17T18:55:01.254Z,65.80
2022-08-17T18:57:50.500Z,65.70
2022-08-17T19:00:33.214Z,65.70
2022-08-17T19:03:03.886Z,65.70
2022-08-17T19:05:42.520Z,65.80
2022-08-17T19:08:30.774Z,65.70
2022-08-17T19:11:18.913Z,65.70
2022-08-17T19:13:57.879Z,65.80
2022-08-17T19:16:38.287Z,65.80
2022-08-17T19:19:31.493Z,65.80
2022-08-17T19:22:16.992Z,65.80
2022-08-17T19:25:09.308Z,65.80
2022-08-17T19:27:49.220Z,65.80
2022-08-17T19:30:18.182Z,65.80
2022-08-17T19:32:45.631Z,65.90
2022-08-17T19:35:17.587Z,65.90
2022-08-17T19:37:53.828Z,65.80
2022-08-17T19:40:48.932Z,65.90
2022-08-17T19:43:36.589Z,65.90
2022-08-17T19:46:13.202Z,65.90
2022-08-17T19:48:46.479Z,65.90
2022-08-17T19:51:47.381Z,65.90
2022-08-17T19:54:18.954Z,65.80
2022-08-17T19:56:59.075Z,65.80
2022-08-17T20:00:08.423Z,65.80
2022-08-17T20:02:47.140Z,65.80
2022-08-17T20:05:22.221Z,65.90
2022-08-17T20:07:53.981Z,65.90
2022-08-17T20:10:31.304Z,65.90
2022-08-17T20:13:06.596Z,65.90
2022-08-17T20:15:39.139Z,65.90
2022-08-17T20:18:14.530Z,65.90
2022-08-17T20:20:47.775Z,65.90
2022-08-17T20:23:30.275Z,65.90
2022-08-17T20:26:21.456Z,65.90
2022-08-17T20:29:08.706Z,65.90
2022-08-17T20:31:45.542Z,65.90
2022-08-17T20:34:33.664Z,65.90
2022-08-17T20:37:24.974Z,66.00
2022-08-17T20:39:52.860Z,65.90
2022-08-17T20:42:20.321Z,66.00
2022-08-17T20:44:53.564Z,66.00
2022-08-17T20:47:27.331Z,66.00
2022-08-17T20:50:01.528Z,66.00
2022-08-17T20:52:54.785Z,66.00
2022-08-17T20:55:51.520Z,66.00
2022-08-17T20:58:23.240Z,66.00
2022-08-17T21:01:00.897Z,66.70
2022-08-17T21:03:28.393Z,66.50
2022-08-17T21:06:18.470Z,66.00
2022-08-17T21:09:13.594Z,66.00
2022-08-17T21:11:58.226Z,66.00
2022-08-17T21:14:38.199Z,66.00
2022-08-17T21:17:32.975Z,66.00
2022-08-17T21:20:10.990Z,66.00
2022-08-17T21:22:39.119Z,66.10
2022-08-17T21:25:32.666Z,66.00
2022-08-17T21:28:30.086Z,66.00
2022-08-17T21:31:09.043Z,66.00
2022-08-17T21:33:38.784Z,66.00
2022-08-17T21:36:12.116Z,66.00
2022-08-17T21:38:49.174Z,66.00
2022-08-17T21:41:27.731Z,66.10
2022-08-17T21:44:05.500Z,66.00
2022-08-17T21:46:38.976Z,66.00
2022-08-17T21:49:13.904Z,66.10
2022-08-17T21:51:50.081Z,66.10
2022-08-17T21:54:26.711Z,66.10
2022-08-17T21:56:54.796Z,66.00
2022-08-17T21:59:35.868Z,66.10
2022-08-17T22:02:07.432Z,66.00
2022-08-17T22:04:40.671Z,66.00
2022-08-17T22:07:12.366Z,66.00
2022-08-17T22:09:49.342Z,66.00
2022-08-17T22:12:22.493Z,66.00
2022-08-17T22:15:04.313Z,66.00
2022-08-17T22:17:36.073Z,66.10
2022-08-17T22:20:19.441Z,66.10
2022-08-17T22:23:05.640Z,66.10
2022-08-17T22:25:36.134Z,66.10
2022-08-17T22:28:09.546Z,66.10
2022-08-17T22:30:39.811Z,66.10
2022-08-17T22:33:28.917Z,66.10
2022-08-17T22:36:22.925Z,66.10
2022-08-17T22:38:55.692Z,66.10
2022-08-17T22:41:25.857Z,66.10
2022-08-17T22:43:57.550Z,66.80
2022-08-17T22:46:26.323Z,66.10
2022-08-17T22:48:58.036Z,66.10
2022-08-17T22:51:29.861Z,66.10
2022-08-17T22:54:21.629Z,66.10
2022-08-17T22:57:18.669Z,66.10
2022-08-17T22:59:52.950Z,66.10
2022-08-17T23:02:24.777Z,66.10
2022-08-17T23:05:16.942Z,66.20
2022-08-17T23:07:46.813Z,66.20
2022-08-17T23:10:15.716Z,66.10
2022-08-17T23:12:43.124Z,66.20
2022-08-17T23:15:16.383Z,66.10
2022-08-17T23:17:44.538Z,66.10
2022-08-17T23:20:15.299Z,66.10
2022-08-17T23:22:51.776Z,66.10
2022-08-17T23:25:29.799Z,66.10
2022-08-17T23:28:01.740Z,66.10
2022-08-17T23:30:34.687Z,66.10
2022-08-17T23:33:07.648Z,66.10
2022-08-17T23:35:39.309Z,66.10
2022-08-17T23:38:12.991Z,66.10
2022-08-17T23:40:40.832Z,66.20
2022-08-17T23:43:17.597Z,66.20
2022-08-17T23:45:54.441Z,66.20
2022-08-17T23:48:28.567Z,66.20
2022-08-17T23:51:26.772Z,66.20
2022-08-17T23:53:58.325Z,66.20
2022-08-17T23:56:28.588Z,66.20
2022-08-17T23:58:56.676Z,66.20
